sensor_id;sensor_type;location;lat;lon;timestamp;P1;durP1;ratioP1;P2;durP2;ratioP2
21927;SDS011;11128;51.096;17.190;2023-04-25T00:03:06;4.30;;;1.13;;
21927;SDS011;11128;51.096;17.190;2023-04-25T00:08:09;2.75;;;1.23;;
21927;SDS011;11128;51.096;17.190;2023-04-25T00:13:10;1.70;;;1.00;;
21927;SDS011;11128;51.096;17.190;2023-04-25T00:18:12;2.47;;;1.02;;
21927;SDS011;11128;51.096;17.190;2023-04-25T00:23:16;2.78;;;1.00;;
21927;SDS011;11128;51.096;17.190;2023-04-25T00:28:20;0.80;;;0.80;;
21927;SDS011;11128;51.096;17.190;2023-04-25T00:33:22;0.90;;;0.90;;
21927;SDS011;11128;51.096;17.190;2023-04-25T00:38:23;1.00;;;0.80;;
21927;SDS011;11128;51.096;17.190;2023-04-25T00:43:27;1.25;;;0.80;;
21927;SDS011;11128;51.096;17.190;2023-04-25T00:48:30;2.13;;;0.95;;
21927;SDS011;11128;51.096;17.190;2023-04-25T00:53:32;1.38;;;0.70;;
21927;SDS011;11128;51.096;17.190;2023-04-25T00:58:33;0.65;;;0.65;;
21927;SDS011;11128;51.096;17.190;2023-04-25T01:03:36;0.80;;;0.60;;
21927;SDS011;11128;51.096;17.190;2023-04-25T01:08:41;1.33;;;0.88;;
21927;SDS011;11128;51.096;17.190;2023-04-25T01:13:42;0.95;;;0.70;;
21927;SDS011;11128;51.096;17.190;2023-04-25T01:18:43;1.05;;;0.68;;
21927;SDS011;11128;51.096;17.190;2023-04-25T01:23:45;2.05;;;0.90;;
21927;SDS011;11128;51.096;17.190;2023-04-25T01:28:47;2.33;;;1.00;;
21927;SDS011;11128;51.096;17.190;2023-04-25T01:33:49;1.42;;;1.02;;
21927;SDS011;11128;51.096;17.190;2023-04-25T01:38:50;3.65;;;1.10;;
21927;SDS011;11128;51.096;17.190;2023-04-25T01:43:52;1.98;;;1.20;;
21927;SDS011;11128;51.096;17.190;2023-04-25T01:48:54;9.50;;;1.60;;
21927;SDS011;11128;51.096;17.190;2023-04-25T01:53:55;3.47;;;1.50;;
21927;SDS011;11128;51.096;17.190;2023-04-25T01:58:57;2.75;;;1.67;;
21927;SDS011;11128;51.096;17.190;2023-04-25T02:03:59;2.05;;;1.85;;
21927;SDS011;11128;51.096;17.190;2023-04-25T02:09:01;3.53;;;1.48;;
21927;SDS011;11128;51.096;17.190;2023-04-25T02:14:02;2.17;;;1.75;;
21927;SDS011;11128;51.096;17.190;2023-04-25T02:19:03;2.70;;;1.90;;
21927;SDS011;11128;51.096;17.190;2023-04-25T02:24:05;2.58;;;1.88;;
21927;SDS011;11128;51.096;17.190;2023-04-25T02:29:07;3.13;;;2.13;;
21927;SDS011;11128;51.096;17.190;2023-04-25T02:34:09;4.57;;;1.92;;
21927;SDS011;11128;51.096;17.190;2023-04-25T02:39:11;2.88;;;2.28;;
21927;SDS011;11128;51.096;17.190;2023-04-25T02:44:12;3.53;;;2.35;;
21927;SDS011;11128;51.096;17.190;2023-04-25T02:49:13;2.85;;;2.20;;
21927;SDS011;11128;51.096;17.190;2023-04-25T02:54:15;3.28;;;2.67;;
21927;SDS011;11128;51.096;17.190;2023-04-25T02:59:16;4.10;;;2.13;;
21927;SDS011;11128;51.096;17.190;2023-04-25T03:04:17;3.55;;;2.15;;
21927;SDS011;11128;51.096;17.190;2023-04-25T03:09:19;5.10;;;2.80;;
21927;SDS011;11128;51.096;17.190;2023-04-25T03:14:21;3.72;;;2.67;;
21927;SDS011;11128;51.096;17.190;2023-04-25T03:19:22;4.05;;;2.50;;
21927;SDS011;11128;51.096;17.190;2023-04-25T03:24:23;6.20;;;2.92;;
21927;SDS011;11128;51.096;17.190;2023-04-25T03:29:24;5.55;;;2.92;;
21927;SDS011;11128;51.096;17.190;2023-04-25T03:34:27;7.03;;;3.60;;
21927;SDS011;11128;51.096;17.190;2023-04-25T03:39:28;6.25;;;2.83;;
21927;SDS011;11128;51.096;17.190;2023-04-25T03:44:30;6.00;;;3.35;;
21927;SDS011;11128;51.096;17.190;2023-04-25T03:49:32;7.88;;;3.33;;
21927;SDS011;11128;51.096;17.190;2023-04-25T03:54:33;5.50;;;3.38;;
21927;SDS011;11128;51.096;17.190;2023-04-25T03:59:34;9.00;;;3.95;;
21927;SDS011;11128;51.096;17.190;2023-04-25T04:04:36;6.40;;;3.50;;
21927;SDS011;11128;51.096;17.190;2023-04-25T04:09:37;9.75;;;3.72;;
21927;SDS011;11128;51.096;17.190;2023-04-25T04:14:39;6.38;;;3.50;;
21927;SDS011;11128;51.096;17.190;2023-04-25T04:19:40;6.55;;;3.50;;
21927;SDS011;11128;51.096;17.190;2023-04-25T04:24:42;6.15;;;4.13;;
21927;SDS011;11128;51.096;17.190;2023-04-25T04:29:44;8.27;;;3.78;;
21927;SDS011;11128;51.096;17.190;2023-04-25T04:34:46;13.68;;;4.70;;
21927;SDS011;11128;51.096;17.190;2023-04-25T04:39:47;8.25;;;4.10;;
21927;SDS011;11128;51.096;17.190;2023-04-25T04:44:48;7.18;;;4.13;;
21927;SDS011;11128;51.096;17.190;2023-04-25T04:49:50;6.75;;;3.75;;
21927;SDS011;11128;51.096;17.190;2023-04-25T04:54:52;10.23;;;4.15;;
21927;SDS011;11128;51.096;17.190;2023-04-25T04:59:53;10.02;;;4.00;;
21927;SDS011;11128;51.096;17.190;2023-04-25T05:04:55;7.80;;;4.93;;
21927;SDS011;11128;51.096;17.190;2023-04-25T05:09:57;6.95;;;4.45;;
21927;SDS011;11128;51.096;17.190;2023-04-25T05:14:58;8.05;;;4.63;;
21927;SDS011;11128;51.096;17.190;2023-04-25T05:19:59;7.35;;;4.13;;
21927;SDS011;11128;51.096;17.190;2023-04-25T05:25:01;11.82;;;4.90;;
21927;SDS011;11128;51.096;17.190;2023-04-25T05:30:02;8.80;;;4.78;;
21927;SDS011;11128;51.096;17.190;2023-04-25T05:35:06;5.82;;;4.05;;
21927;SDS011;11128;51.096;17.190;2023-04-25T05:40:07;5.18;;;3.60;;
21927;SDS011;11128;51.096;17.190;2023-04-25T05:45:09;8.15;;;4.00;;
21927;SDS011;11128;51.096;17.190;2023-04-25T05:50:11;6.53;;;4.10;;
21927;SDS011;11128;51.096;17.190;2023-04-25T05:55:12;6.22;;;3.53;;
21927;SDS011;11128;51.096;17.190;2023-04-25T06:00:16;8.05;;;4.30;;
21927;SDS011;11128;51.096;17.190;2023-04-25T06:05:19;9.27;;;4.30;;
21927;SDS011;11128;51.096;17.190;2023-04-25T06:10:21;7.47;;;4.07;;
21927;SDS011;11128;51.096;17.190;2023-04-25T06:15:23;7.40;;;3.67;;
21927;SDS011;11128;51.096;17.190;2023-04-25T06:20:24;7.10;;;3.70;;
21927;SDS011;11128;51.096;17.190;2023-04-25T06:25:25;7.75;;;3.45;;
21927;SDS011;11128;51.096;17.190;2023-04-25T06:30:26;6.28;;;3.53;;
21927;SDS011;11128;51.096;17.190;2023-04-25T06:35:27;7.63;;;3.80;;
21927;SDS011;11128;51.096;17.190;2023-04-25T06:40:29;5.10;;;3.50;;
21927;SDS011;11128;51.096;17.190;2023-04-25T06:45:30;7.38;;;3.47;;
21927;SDS011;11128;51.096;17.190;2023-04-25T06:50:32;5.82;;;3.10;;
21927;SDS011;11128;51.096;17.190;2023-04-25T06:55:34;4.97;;;2.70;;
21927;SDS011;11128;51.096;17.190;2023-04-25T07:00:35;6.45;;;2.70;;
21927;SDS011;11128;51.096;17.190;2023-04-25T07:05:36;6.00;;;3.13;;
21927;SDS011;11128;51.096;17.190;2023-04-25T07:10:38;5.93;;;2.90;;
21927;SDS011;11128;51.096;17.190;2023-04-25T07:15:39;7.43;;;2.97;;
21927;SDS011;11128;51.096;17.190;2023-04-25T07:20:40;8.73;;;2.17;;
21927;SDS011;11128;51.096;17.190;2023-04-25T07:25:41;3.90;;;2.70;;
21927;SDS011;11128;51.096;17.190;2023-04-25T07:30:43;6.38;;;2.10;;
21927;SDS011;11128;51.096;17.190;2023-04-25T07:35:44;2.10;;;1.90;;
21927;SDS011;11128;51.096;17.190;2023-04-25T07:40:46;4.85;;;2.58;;
21927;SDS011;11128;51.096;17.190;2023-04-25T07:45:48;5.03;;;2.33;;
21927;SDS011;11128;51.096;17.190;2023-04-25T07:50:49;2.30;;;1.75;;
21927;SDS011;11128;51.096;17.190;2023-04-25T07:55:50;4.00;;;1.63;;
21927;SDS011;11128;51.096;17.190;2023-04-25T08:00:52;5.13;;;2.33;;
21927;SDS011;11128;51.096;17.190;2023-04-25T08:05:53;4.20;;;1.98;;
21927;SDS011;11128;51.096;17.190;2023-04-25T08:10:55;4.85;;;2.53;;
21927;SDS011;11128;51.096;17.190;2023-04-25T08:15:56;5.88;;;2.72;;
21927;SDS011;11128;51.096;17.190;2023-04-25T08:20:57;7.10;;;3.25;;
21927;SDS011;11128;51.096;17.190;2023-04-25T08:25:59;5.93;;;3.65;;
21927;SDS011;11128;51.096;17.190;2023-04-25T08:31:00;7.00;;;3.88;;
21927;SDS011;11128;51.096;17.190;2023-04-25T08:36:01;7.35;;;4.03;;
21927;SDS011;11128;51.096;17.190;2023-04-25T08:41:03;5.03;;;3.53;;
21927;SDS011;11128;51.096;17.190;2023-04-25T08:46:07;6.50;;;3.50;;
21927;SDS011;11128;51.096;17.190;2023-04-25T08:51:09;4.60;;;3.42;;
21927;SDS011;11128;51.096;17.190;2023-04-25T08:56:16;6.95;;;3.83;;
21927;SDS011;11128;51.096;17.190;2023-04-25T09:01:21;6.22;;;3.90;;
21927;SDS011;11128;51.096;17.190;2023-04-25T09:06:23;5.82;;;3.95;;
21927;SDS011;11128;51.096;17.190;2023-04-25T09:11:24;6.07;;;3.63;;
21927;SDS011;11128;51.096;17.190;2023-04-25T09:16:26;5.28;;;3.60;;
21927;SDS011;11128;51.096;17.190;2023-04-25T09:21:27;6.13;;;3.67;;
21927;SDS011;11128;51.096;17.190;2023-04-25T09:26:31;6.38;;;3.85;;
21927;SDS011;11128;51.096;17.190;2023-04-25T09:31:33;9.23;;;3.35;;
21927;SDS011;11128;51.096;17.190;2023-04-25T09:36:35;5.95;;;3.72;;
21927;SDS011;11128;51.096;17.190;2023-04-25T09:41:39;6.57;;;3.78;;
21927;SDS011;11128;51.096;17.190;2023-04-25T09:46:42;6.20;;;3.40;;
21927;SDS011;11128;51.096;17.190;2023-04-25T09:51:53;5.90;;;3.60;;
21927;SDS011;11128;51.096;17.190;2023-04-25T09:56:56;6.63;;;3.45;;
21927;SDS011;11128;51.096;17.190;2023-04-25T10:02:02;4.40;;;3.45;;
21927;SDS011;11128;51.096;17.190;2023-04-25T10:07:07;5.28;;;3.72;;
21927;SDS011;11128;51.096;17.190;2023-04-25T10:12:10;5.60;;;3.83;;
21927;SDS011;11128;51.096;17.190;2023-04-25T10:17:12;5.60;;;3.55;;
21927;SDS011;11128;51.096;17.190;2023-04-25T10:22:18;3.35;;;2.70;;
21927;SDS011;11128;51.096;17.190;2023-04-25T10:27:27;5.18;;;2.92;;
21927;SDS011;11128;51.096;17.190;2023-04-25T10:32:30;5.05;;;3.30;;
21927;SDS011;11128;51.096;17.190;2023-04-25T10:37:32;3.08;;;2.70;;
21927;SDS011;11128;51.096;17.190;2023-04-25T10:42:34;3.35;;;2.28;;
21927;SDS011;11128;51.096;17.190;2023-04-25T10:47:35;4.03;;;2.65;;
21927;SDS011;11128;51.096;17.190;2023-04-25T10:52:38;4.05;;;2.25;;
21927;SDS011;11128;51.096;17.190;2023-04-25T10:57:44;5.38;;;2.63;;
21927;SDS011;11128;51.096;17.190;2023-04-25T11:02:58;5.17;;;2.57;;
21927;SDS011;11128;51.096;17.190;2023-04-25T11:08:00;3.07;;;2.50;;
21927;SDS011;11128;51.096;17.190;2023-04-25T11:13:03;5.32;;;2.63;;
21927;SDS011;11128;51.096;17.190;2023-04-25T11:18:05;4.35;;;2.50;;
21927;SDS011;11128;51.096;17.190;2023-04-25T11:23:07;2.40;;;1.55;;
21927;SDS011;11128;51.096;17.190;2023-04-25T11:28:08;2.08;;;1.88;;
21927;SDS011;11128;51.096;17.190;2023-04-25T11:33:10;2.08;;;1.83;;
21927;SDS011;11128;51.096;17.190;2023-04-25T11:38:12;4.70;;;2.30;;
21927;SDS011;11128;51.096;17.190;2023-04-25T11:43:13;3.47;;;2.78;;
21927;SDS011;11128;51.096;17.190;2023-04-25T11:48:14;5.00;;;2.20;;
21927;SDS011;11128;51.096;17.190;2023-04-25T11:53:17;3.97;;;2.05;;
21927;SDS011;11128;51.096;17.190;2023-04-25T11:58:19;1.85;;;1.30;;
21927;SDS011;11128;51.096;17.190;2023-04-25T12:03:20;4.15;;;1.05;;
21927;SDS011;11128;51.096;17.190;2023-04-25T12:08:24;2.25;;;1.20;;
21927;SDS011;11128;51.096;17.190;2023-04-25T12:13:26;1.40;;;0.90;;
21927;SDS011;11128;51.096;17.190;2023-04-25T12:18:28;2.25;;;1.20;;
21927;SDS011;11128;51.096;17.190;2023-04-25T12:23:30;1.08;;;0.98;;
21927;SDS011;11128;51.096;17.190;2023-04-25T12:28:32;2.67;;;1.13;;
21927;SDS011;11128;51.096;17.190;2023-04-25T12:33:35;1.30;;;1.20;;
21927;SDS011;11128;51.096;17.190;2023-04-25T12:38:38;3.03;;;1.10;;
21927;SDS011;11128;51.096;17.190;2023-04-25T12:43:40;1.05;;;0.93;;
21927;SDS011;11128;51.096;17.190;2023-04-25T12:48:41;1.48;;;1.08;;
21927;SDS011;11128;51.096;17.190;2023-04-25T12:53:42;1.13;;;0.93;;
21927;SDS011;11128;51.096;17.190;2023-04-25T12:58:44;1.88;;;1.13;;
21927;SDS011;11128;51.096;17.190;2023-04-25T13:03:46;1.35;;;1.13;;
21927;SDS011;11128;51.096;17.190;2023-04-25T13:08:48;3.70;;;1.50;;
21927;SDS011;11128;51.096;17.190;2023-04-25T13:13:50;3.25;;;1.17;;
21927;SDS011;11128;51.096;17.190;2023-04-25T13:18:51;2.28;;;1.40;;
21927;SDS011;11128;51.096;17.190;2023-04-25T13:23:52;1.95;;;1.23;;
21927;SDS011;11128;51.096;17.190;2023-04-25T13:28:53;2.70;;;1.30;;
21927;SDS011;11128;51.096;17.190;2023-04-25T13:33:55;1.88;;;1.10;;
21927;SDS011;11128;51.096;17.190;2023-04-25T13:38:56;1.55;;;1.00;;
21927;SDS011;11128;51.096;17.190;2023-04-25T13:43:57;4.35;;;1.80;;
21927;SDS011;11128;51.096;17.190;2023-04-25T13:48:58;10.00;;;2.13;;
21927;SDS011;11128;51.096;17.190;2023-04-25T13:54:00;3.80;;;1.60;;
21927;SDS011;11128;51.096;17.190;2023-04-25T13:59:01;2.45;;;1.00;;
21927;SDS011;11128;51.096;17.190;2023-04-25T14:04:02;2.25;;;1.27;;
21927;SDS011;11128;51.096;17.190;2023-04-25T14:09:07;2.15;;;1.20;;
21927;SDS011;11128;51.096;17.190;2023-04-25T14:14:10;4.22;;;1.52;;
21927;SDS011;11128;51.096;17.190;2023-04-25T14:19:12;2.25;;;1.42;;
21927;SDS011;11128;51.096;17.190;2023-04-25T14:24:14;2.95;;;1.20;;
21927;SDS011;11128;51.096;17.190;2023-04-25T14:29:15;1.45;;;1.00;;
21927;SDS011;11128;51.096;17.190;2023-04-25T14:34:16;2.08;;;1.10;;
21927;SDS011;11128;51.096;17.190;2023-04-25T14:39:18;4.78;;;1.13;;
21927;SDS011;11128;51.096;17.190;2023-04-25T14:44:19;2.03;;;1.10;;
21927;SDS011;11128;51.096;17.190;2023-04-25T14:49:21;3.58;;;0.90;;
21927;SDS011;11128;51.096;17.190;2023-04-25T14:54:22;1.40;;;1.30;;
21927;SDS011;11128;51.096;17.190;2023-04-25T14:59:23;4.35;;;1.20;;
21927;SDS011;11128;51.096;17.190;2023-04-25T15:04:25;3.70;;;1.50;;
21927;SDS011;11128;51.096;17.190;2023-04-25T15:09:26;2.20;;;1.55;;
21927;SDS011;11128;51.096;17.190;2023-04-25T15:14:27;1.98;;;1.38;;
21927;SDS011;11128;51.096;17.190;2023-04-25T15:19:29;2.33;;;1.15;;
21927;SDS011;11128;51.096;17.190;2023-04-25T15:24:30;4.82;;;1.48;;
21927;SDS011;11128;51.096;17.190;2023-04-25T15:29:31;3.22;;;1.55;;
21927;SDS011;11128;51.096;17.190;2023-04-25T15:34:33;4.05;;;1.27;;
21927;SDS011;11128;51.096;17.190;2023-04-25T15:39:34;2.13;;;1.00;;
21927;SDS011;11128;51.096;17.190;2023-04-25T15:44:35;3.38;;;1.30;;
21927;SDS011;11128;51.096;17.190;2023-04-25T15:49:36;1.58;;;1.20;;
21927;SDS011;11128;51.096;17.190;2023-04-25T15:54:37;2.58;;;1.30;;
21927;SDS011;11128;51.096;17.190;2023-04-25T15:59:39;1.85;;;1.50;;
21927;SDS011;11128;51.096;17.190;2023-04-25T16:04:40;4.65;;;1.65;;
21927;SDS011;11128;51.096;17.190;2023-04-25T16:09:41;3.88;;;2.00;;
21927;SDS011;11128;51.096;17.190;2023-04-25T16:14:44;2.72;;;1.55;;
21927;SDS011;11128;51.096;17.190;2023-04-25T16:19:45;5.00;;;2.30;;
21927;SDS011;11128;51.096;17.190;2023-04-25T16:24:46;3.05;;;2.10;;
21927;SDS011;11128;51.096;17.190;2023-04-25T16:29:48;2.60;;;1.98;;
21927;SDS011;11128;51.096;17.190;2023-04-25T16:34:50;3.90;;;2.70;;
21927;SDS011;11128;51.096;17.190;2023-04-25T16:39:52;6.85;;;4.22;;
21927;SDS011;11128;51.096;17.190;2023-04-25T16:44:53;4.82;;;3.78;;
21927;SDS011;11128;51.096;17.190;2023-04-25T16:49:55;5.70;;;3.70;;
21927;SDS011;11128;51.096;17.190;2023-04-25T16:54:57;3.67;;;3.30;;
21927;SDS011;11128;51.096;17.190;2023-04-25T16:59:58;7.90;;;4.55;;
21927;SDS011;11128;51.096;17.190;2023-04-25T17:04:59;4.97;;;2.40;;
21927;SDS011;11128;51.096;17.190;2023-04-25T17:10:00;2.70;;;1.67;;
21927;SDS011;11128;51.096;17.190;2023-04-25T17:15:02;3.47;;;1.80;;
21927;SDS011;11128;51.096;17.190;2023-04-25T17:20:04;3.58;;;1.42;;
21927;SDS011;11128;51.096;17.190;2023-04-25T17:25:07;3.13;;;2.83;;
21927;SDS011;11128;51.096;17.190;2023-04-25T17:30:09;3.80;;;1.73;;
21927;SDS011;11128;51.096;17.190;2023-04-25T17:35:12;3.85;;;1.40;;
21927;SDS011;11128;51.096;17.190;2023-04-25T17:40:13;3.35;;;2.30;;
21927;SDS011;11128;51.096;17.190;2023-04-25T17:45:17;3.72;;;2.00;;
21927;SDS011;11128;51.096;17.190;2023-04-25T17:50:18;6.78;;;2.40;;
21927;SDS011;11128;51.096;17.190;2023-04-25T17:55:20;6.60;;;3.38;;
21927;SDS011;11128;51.096;17.190;2023-04-25T18:00:21;5.47;;;3.28;;
21927;SDS011;11128;51.096;17.190;2023-04-25T18:05:23;14.32;;;6.20;;
21927;SDS011;11128;51.096;17.190;2023-04-25T18:10:24;7.93;;;3.30;;
21927;SDS011;11128;51.096;17.190;2023-04-25T18:15:26;15.30;;;6.30;;
21927;SDS011;11128;51.096;17.190;2023-04-25T18:20:30;20.13;;;7.75;;
21927;SDS011;11128;51.096;17.190;2023-04-25T18:25:31;13.77;;;6.30;;
21927;SDS011;11128;51.096;17.190;2023-04-25T18:30:33;17.73;;;7.57;;
21927;SDS011;11128;51.096;17.190;2023-04-25T18:35:35;13.35;;;7.13;;
21927;SDS011;11128;51.096;17.190;2023-04-25T18:40:36;16.38;;;7.50;;
21927;SDS011;11128;51.096;17.190;2023-04-25T18:45:38;15.60;;;6.75;;
21927;SDS011;11128;51.096;17.190;2023-04-25T18:50:39;18.30;;;7.18;;
21927;SDS011;11128;51.096;17.190;2023-04-25T18:55:43;13.27;;;5.70;;
21927;SDS011;11128;51.096;17.190;2023-04-25T19:00:44;11.25;;;5.75;;
21927;SDS011;11128;51.096;17.190;2023-04-25T19:05:47;11.13;;;5.32;;
21927;SDS011;11128;51.096;17.190;2023-04-25T19:10:49;13.20;;;5.90;;
21927;SDS011;11128;51.096;17.190;2023-04-25T19:15:53;13.18;;;5.32;;
21927;SDS011;11128;51.096;17.190;2023-04-25T19:20:54;11.88;;;4.38;;
21927;SDS011;11128;51.096;17.190;2023-04-25T19:25:56;12.30;;;5.10;;
21927;SDS011;11128;51.096;17.190;2023-04-25T19:30:57;9.43;;;3.88;;
21927;SDS011;11128;51.096;17.190;2023-04-25T19:35:59;9.38;;;4.68;;
21927;SDS011;11128;51.096;17.190;2023-04-25T19:41:00;7.28;;;3.30;;
21927;SDS011;11128;51.096;17.190;2023-04-25T19:46:01;17.15;;;3.95;;
21927;SDS011;11128;51.096;17.190;2023-04-25T19:51:02;5.85;;;3.45;;
21927;SDS011;11128;51.096;17.190;2023-04-25T19:56:04;8.93;;;3.20;;
21927;SDS011;11128;51.096;17.190;2023-04-25T20:01:05;8.85;;;3.60;;
21927;SDS011;11128;51.096;17.190;2023-04-25T20:06:07;13.57;;;3.80;;
21927;SDS011;11128;51.096;17.190;2023-04-25T20:11:17;9.57;;;3.75;;
21927;SDS011;11128;51.096;17.190;2023-04-25T20:16:23;12.27;;;3.25;;
21927;SDS011;11128;51.096;17.190;2023-04-25T20:21:24;11.50;;;3.30;;
21927;SDS011;11128;51.096;17.190;2023-04-25T20:26:27;10.13;;;3.25;;
21927;SDS011;11128;51.096;17.190;2023-04-25T20:31:29;7.05;;;2.42;;
21927;SDS011;11128;51.096;17.190;2023-04-25T20:36:31;6.75;;;2.90;;
21927;SDS011;11128;51.096;17.190;2023-04-25T20:41:33;9.68;;;3.60;;
21927;SDS011;11128;51.096;17.190;2023-04-25T20:46:34;7.57;;;3.72;;
21927;SDS011;11128;51.096;17.190;2023-04-25T20:51:35;7.13;;;2.28;;
21927;SDS011;11128;51.096;17.190;2023-04-25T20:56:38;6.03;;;2.30;;
21927;SDS011;11128;51.096;17.190;2023-04-25T21:01:39;8.15;;;2.90;;
21927;SDS011;11128;51.096;17.190;2023-04-25T21:06:41;8.60;;;2.47;;
21927;SDS011;11128;51.096;17.190;2023-04-25T21:11:42;6.53;;;2.75;;
21927;SDS011;11128;51.096;17.190;2023-04-25T21:16:43;7.55;;;3.08;;
21927;SDS011;11128;51.096;17.190;2023-04-25T21:21:45;7.28;;;2.95;;
21927;SDS011;11128;51.096;17.190;2023-04-25T21:26:46;10.98;;;3.50;;
21927;SDS011;11128;51.096;17.190;2023-04-25T21:31:47;9.32;;;2.83;;
21927;SDS011;11128;51.096;17.190;2023-04-25T21:36:49;9.23;;;3.03;;
21927;SDS011;11128;51.096;17.190;2023-04-25T21:41:50;7.63;;;2.83;;
21927;SDS011;11128;51.096;17.190;2023-04-25T21:46:51;10.23;;;2.55;;
21927;SDS011;11128;51.096;17.190;2023-04-25T21:51:53;3.83;;;2.33;;
21927;SDS011;11128;51.096;17.190;2023-04-25T21:56:57;11.23;;;3.03;;
21927;SDS011;11128;51.096;17.190;2023-04-25T22:01:59;9.65;;;2.67;;
21927;SDS011;11128;51.096;17.190;2023-04-25T22:07:00;10.40;;;2.67;;
21927;SDS011;11128;51.096;17.190;2023-04-25T22:12:01;11.70;;;2.80;;
21927;SDS011;11128;51.096;17.190;2023-04-25T22:17:03;5.80;;;2.50;;
21927;SDS011;11128;51.096;17.190;2023-04-25T22:22:04;10.15;;;3.25;;
21927;SDS011;11128;51.096;17.190;2023-04-25T22:27:06;11.80;;;3.35;;
21927;SDS011;11128;51.096;17.190;2023-04-25T22:32:07;7.72;;;2.97;;
21927;SDS011;11128;51.096;17.190;2023-04-25T22:37:08;7.38;;;2.95;;
21927;SDS011;11128;51.096;17.190;2023-04-25T22:42:10;7.75;;;3.00;;
21927;SDS011;11128;51.096;17.190;2023-04-25T22:47:12;10.40;;;3.00;;
21927;SDS011;11128;51.096;17.190;2023-04-25T22:52:13;6.13;;;2.75;;
21927;SDS011;11128;51.096;17.190;2023-04-25T22:57:14;7.97;;;3.40;;
21927;SDS011;11128;51.096;17.190;2023-04-25T23:02:16;12.50;;;3.50;;
21927;SDS011;11128;51.096;17.190;2023-04-25T23:07:18;14.27;;;3.22;;
21927;SDS011;11128;51.096;17.190;2023-04-25T23:12:20;8.70;;;3.65;;
21927;SDS011;11128;51.096;17.190;2023-04-25T23:17:21;15.32;;;3.58;;
21927;SDS011;11128;51.096;17.190;2023-04-25T23:22:22;9.00;;;3.70;;
21927;SDS011;11128;51.096;17.190;2023-04-25T23:27:24;12.23;;;3.67;;
21927;SDS011;11128;51.096;17.190;2023-04-25T23:32:25;7.40;;;3.42;;
21927;SDS011;11128;51.096;17.190;2023-04-25T23:37:26;8.30;;;3.45;;
21927;SDS011;11128;51.096;17.190;2023-04-25T23:42:30;8.05;;;3.75;;
21927;SDS011;11128;51.096;17.190;2023-04-25T23:47:31;9.98;;;4.00;;
21927;SDS011;11128;51.096;17.190;2023-04-25T23:52:33;13.10;;;4.40;;
21927;SDS011;11128;51.096;17.190;2023-04-25T23:57:35;5.95;;;3.33;;
